createdAt,value
2022-12-12T00:00:37.956Z,100545.56
2022-12-12T00:03:42.130Z,100550.56
2022-12-12T00:06:44.997Z,100548.13
2022-12-12T00:09:50.522Z,100550.25
2022-12-12T00:12:53.251Z,100538.19
2022-12-12T00:15:57.330Z,100540.06
2022-12-12T00:19:01.374Z,100531.31
2022-12-12T00:22:04.264Z,100527.16
2022-12-12T00:25:10.645Z,100525.41
2022-12-12T00:28:13.575Z,100531.06
2022-12-12T00:31:18.688Z,100530.59
2022-12-12T00:34:23.070Z,100520.00
2022-12-12T00:37:26.255Z,100523.25
2022-12-12T00:40:31.892Z,100524.75
2022-12-12T00:43:35.219Z,100516.41
2022-12-12T00:46:39.360Z,100513.38
2022-12-12T00:49:43.379Z,100513.00
2022-12-12T00:52:46.196Z,100497.31
2022-12-12T00:55:59.197Z,100506.66
2022-12-12T00:59:02.946Z,100508.63
2022-12-12T01:02:07.157Z,100510.41
2022-12-12T01:05:10.857Z,100521.91
2022-12-12T01:08:15.481Z,100532.25
2022-12-12T01:11:21.811Z,100542.28
2022-12-12T01:14:24.600Z,100549.75
2022-12-12T01:17:28.639Z,100546.22
2022-12-12T01:20:32.664Z,100538.63
2022-12-12T01:23:35.388Z,100541.84
2022-12-12T01:26:40.892Z,100545.09
2022-12-12T01:29:43.620Z,100543.22
2022-12-12T01:32:47.806Z,100542.50
2022-12-12T01:35:51.984Z,100543.78
2022-12-12T01:38:57.299Z,100541.66
2022-12-12T01:42:02.752Z,100538.81
2022-12-12T01:45:06.242Z,100555.84
2022-12-12T01:48:10.198Z,100556.31
2022-12-12T01:51:20.940Z,100553.47
2022-12-12T01:54:28.825Z,100541.53
2022-12-12T01:57:38.898Z,100547.25
2022-12-12T02:00:42.302Z,100547.97
2022-12-12T02:03:47.036Z,100548.72
2022-12-12T02:06:52.323Z,100535.25
2022-12-12T02:09:56.360Z,100535.25
2022-12-12T02:13:05.035Z,100530.41
2022-12-12T02:16:17.117Z,100526.44
2022-12-12T02:19:48.978Z,100525.41
2022-12-12T02:23:16.600Z,100530.41
2022-12-12T02:26:49.029Z,100527.16
2022-12-12T02:30:15.473Z,100525.69
2022-12-12T02:33:38.582Z,100525.16
2022-12-12T02:36:54.865Z,100523.78
2022-12-12T02:40:02.510Z,100528.88
2022-12-12T02:43:15.349Z,100541.41
2022-12-12T02:46:23.912Z,100545.88
2022-12-12T02:49:34.008Z,100548.88
2022-12-12T02:52:38.878Z,100548.41
2022-12-12T02:55:41.988Z,100551.75
2022-12-12T02:58:46.123Z,100548.41
2022-12-12T03:06:03.692Z,100545.41
2022-12-12T03:09:18.937Z,100542.75
2022-12-12T03:12:30.333Z,100538.69
2022-12-12T03:15:43.803Z,100540.91
2022-12-12T03:18:59.188Z,100539.19
2022-12-12T03:22:08.475Z,100535.38
2022-12-12T03:25:22.658Z,100541.50
2022-12-12T03:28:32.766Z,100538.69
2022-12-12T03:31:41.541Z,100536.88
2022-12-12T03:34:49.889Z,100537.00
2022-12-12T03:37:58.588Z,100542.13
2022-12-12T03:41:05.484Z,100542.75
2022-12-12T03:44:14.739Z,100547.44
2022-12-12T03:47:22.414Z,100549.97
2022-12-12T03:50:29.855Z,100546.56
2022-12-12T03:53:41.248Z,100552.59
2022-12-12T03:56:49.922Z,100554.28
2022-12-12T03:59:58.456Z,100555.09
2022-12-12T04:03:12.256Z,100551.88
2022-12-12T04:06:31.845Z,100552.00
2022-12-12T04:09:53.453Z,100551.66
2022-12-12T04:13:10.438Z,100549.63
2022-12-12T04:16:15.155Z,100551.94
2022-12-12T04:19:40.587Z,100552.31
2022-12-12T04:23:07.845Z,100542.97
2022-12-12T04:26:35.704Z,100552.97
2022-12-12T04:29:47.356Z,100548.41
2022-12-12T04:32:53.759Z,100549.63
2022-12-12T04:36:00.694Z,100550.66
2022-12-12T04:39:07.959Z,100550.09
2022-12-12T04:42:16.295Z,100551.56
2022-12-12T04:45:24.931Z,100559.50
2022-12-12T04:48:37.016Z,100554.16
2022-12-12T04:51:45.881Z,100554.41
2022-12-12T04:55:00.027Z,100553.19
2022-12-12T04:58:06.518Z,100555.44
2022-12-12T05:01:15.318Z,100560.91
2022-12-12T05:04:24.445Z,100567.81
2022-12-12T05:07:39.800Z,100558.03
2022-12-12T05:10:46.338Z,100567.16
2022-12-12T05:13:51.187Z,100568.47
2022-12-12T05:20:20.990Z,100561.13
2022-12-12T05:23:27.899Z,100553.94
2022-12-12T05:26:35.878Z,100561.97
2022-12-12T05:29:41.288Z,100563.69
2022-12-12T05:32:45.578Z,100560.09
2022-12-12T05:35:48.307Z,100554.97
2022-12-12T05:38:52.464Z,100565.31
2022-12-12T05:41:55.162Z,100572.56
2022-12-12T05:45:00.574Z,100574.59
2022-12-12T05:48:04.691Z,100574.44
2022-12-12T05:51:07.410Z,100568.91
2022-12-12T05:54:11.484Z,100576.31
2022-12-12T05:57:14.191Z,100568.63
2022-12-12T06:03:42.666Z,100569.22
2022-12-12T06:06:45.366Z,100579.16
2022-12-12T06:09:49.674Z,100577.94
2022-12-12T06:12:52.509Z,100577.31
2022-12-12T06:15:58.015Z,100583.34
2022-12-12T06:22:24.977Z,100589.38
2022-12-12T06:28:51.106Z,100600.16
2022-12-12T06:31:55.586Z,100596.84
2022-12-12T06:34:59.657Z,100597.19
2022-12-12T06:38:02.405Z,100596.75
2022-12-12T06:41:09.631Z,100600.69
2022-12-12T06:44:13.759Z,100597.56
2022-12-12T06:47:17.917Z,100610.53
2022-12-12T06:50:23.866Z,100604.03
2022-12-12T06:53:28.170Z,100611.25
2022-12-12T06:56:31.449Z,100610.03
2022-12-12T06:59:35.434Z,100603.78
2022-12-12T07:02:39.520Z,100602.94
2022-12-12T07:05:43.645Z,100608.16
2022-12-12T07:08:46.602Z,100617.69
2022-12-12T07:11:50.582Z,100621.25
2022-12-12T07:14:54.980Z,100620.03
2022-12-12T07:17:59.166Z,100624.84
2022-12-12T07:21:06.472Z,100631.63
2022-12-12T07:24:09.418Z,100633.59
2022-12-12T07:27:17.048Z,100635.84
2022-12-12T07:33:47.603Z,100640.03
2022-12-12T07:36:51.583Z,100640.78
2022-12-12T07:39:55.546Z,100638.72
2022-12-12T07:42:58.332Z,100646.19
2022-12-12T07:46:02.429Z,100653.22
2022-12-12T07:49:06.563Z,100647.72
2022-12-12T07:52:10.796Z,100655.75
2022-12-12T07:55:15.244Z,100652.69
2022-12-12T07:58:18.545Z,100653.31
2022-12-12T08:01:24.943Z,100654.16
2022-12-12T08:04:29.084Z,100658.84
2022-12-12T08:07:33.085Z,100664.03
2022-12-12T08:10:37.515Z,100661.78
2022-12-12T08:13:41.234Z,100669.69
2022-12-12T08:16:45.258Z,100681.47
2022-12-12T08:19:49.575Z,100675.81
2022-12-12T08:22:53.739Z,100674.44
2022-12-12T08:25:56.522Z,100678.44
2022-12-12T08:29:01.652Z,100681.91
2022-12-12T08:35:30.395Z,100694.47
2022-12-12T08:38:34.483Z,100687.94
2022-12-12T08:41:40.775Z,100692.13
2022-12-12T08:44:43.611Z,100696.38
2022-12-12T08:47:47.580Z,100695.59
2022-12-12T08:50:53.255Z,100695.59
2022-12-12T08:53:57.413Z,100702.41
2022-12-12T08:57:01.392Z,100706.34
2022-12-12T09:00:05.326Z,100722.03
2022-12-12T09:03:09.944Z,100722.53
2022-12-12T09:06:15.633Z,100736.75
2022-12-12T09:09:18.351Z,100733.22
2022-12-12T09:12:22.346Z,100731.25
2022-12-12T09:15:25.111Z,100731.44
2022-12-12T09:18:29.328Z,100739.06
2022-12-12T09:21:33.422Z,100738.22
2022-12-12T09:24:38.000Z,100746.22
2022-12-12T09:27:42.064Z,100742.50
2022-12-12T09:30:45.924Z,100742.06
2022-12-12T09:33:50.077Z,100748.75
2022-12-12T09:36:54.284Z,100750.38
2022-12-12T09:39:58.597Z,100743.53
2022-12-12T09:43:01.727Z,100746.06
2022-12-12T09:49:44.225Z,100742.09
2022-12-12T09:52:50.043Z,100752.00
2022-12-12T09:56:00.292Z,100746.66
2022-12-12T09:59:11.284Z,100751.56
2022-12-12T10:02:34.221Z,100754.50
2022-12-12T10:05:44.402Z,100751.34
2022-12-12T10:08:59.932Z,100751.72
2022-12-12T10:12:08.596Z,100751.41
2022-12-12T10:15:27.838Z,100745.38
2022-12-12T10:18:35.309Z,100750.34
2022-12-12T10:21:42.934Z,100757.28
2022-12-12T10:28:17.032Z,100754.94
2022-12-12T10:38:46.430Z,100751.72
2022-12-12T10:41:58.805Z,100751.19
2022-12-12T10:45:30.897Z,100749.31
2022-12-12T10:55:22.545Z,100753.44
2022-12-12T10:58:29.113Z,100752.94
2022-12-12T11:02:07.655Z,100742.16
2022-12-12T11:05:04.131Z,100743.84
2022-12-12T11:08:20.108Z,100745.53
2022-12-12T11:11:25.155Z,100748.69
2022-12-12T11:14:36.320Z,100739.72
2022-12-12T11:17:40.940Z,100739.94
2022-12-12T11:20:50.307Z,100742.47
2022-12-12T11:23:58.641Z,100739.16
2022-12-12T11:27:03.862Z,100748.25
2022-12-12T11:30:24.102Z,100749.97
2022-12-12T11:33:35.507Z,100752.81
2022-12-12T11:36:41.787Z,100757.44
2022-12-12T11:39:48.412Z,100761.78
2022-12-12T11:42:51.469Z,100761.81
2022-12-12T11:46:07.087Z,100763.19
2022-12-12T11:49:21.549Z,100760.72
2022-12-12T11:52:27.305Z,100776.94
2022-12-12T11:55:47.423Z,100768.66
2022-12-12T11:58:56.260Z,100761.56
2022-12-12T12:05:53.567Z,100752.56
2022-12-12T12:09:12.119Z,100756.47
2022-12-12T12:12:23.150Z,100746.22
2022-12-12T12:15:36.957Z,100753.69
2022-12-12T12:18:58.895Z,100751.75
2022-12-12T12:22:17.553Z,100745.38
2022-12-12T12:25:31.582Z,100745.25
2022-12-12T12:29:04.460Z,100740.84
2022-12-12T12:32:16.129Z,100744.06
2022-12-12T12:35:30.340Z,100737.06
2022-12-12T12:38:58.812Z,100745.53
2022-12-12T12:42:18.547Z,100741.25
2022-12-12T12:45:35.156Z,100743.91
2022-12-12T12:48:42.952Z,100741.13
2022-12-12T12:51:52.778Z,100742.91
2022-12-12T12:55:00.392Z,100737.72
2022-12-12T12:58:08.480Z,100748.34
2022-12-12T13:01:15.200Z,100742.97
2022-12-12T13:04:24.629Z,100745.44
2022-12-12T13:07:40.877Z,100736.84
2022-12-12T13:10:48.596Z,100736.50
2022-12-12T13:13:55.528Z,100738.44
2022-12-12T13:17:06.595Z,100737.06
2022-12-12T13:20:18.009Z,100739.66
2022-12-12T13:23:40.100Z,100739.13
2022-12-12T13:26:50.192Z,100743.44
2022-12-12T13:37:00.869Z,100735.13
2022-12-12T13:40:09.064Z,100738.22
2022-12-12T13:43:30.557Z,100741.53
2022-12-12T13:46:42.383Z,100753.47
2022-12-12T13:49:53.749Z,100753.97
2022-12-12T13:53:18.951Z,100756.41
2022-12-12T13:56:36.195Z,100766.38
2022-12-12T14:00:25.166Z,100756.34
2022-12-12T14:03:31.348Z,100762.38
2022-12-12T14:06:35.457Z,100771.38
2022-12-12T14:09:48.110Z,100769.81
2022-12-12T14:12:54.557Z,100771.69
2022-12-12T14:16:04.643Z,100779.03
2022-12-12T14:19:11.402Z,100775.09
2022-12-12T14:22:29.449Z,100776.78
2022-12-12T14:25:34.752Z,100775.94
2022-12-12T14:28:40.205Z,100768.06
2022-12-12T14:31:51.360Z,100769.47
2022-12-12T14:35:10.485Z,100773.44
2022-12-12T14:38:28.081Z,100777.44
2022-12-12T14:41:36.071Z,100789.16
2022-12-12T14:44:50.669Z,100789.31
2022-12-12T14:48:17.248Z,100786.63
2022-12-12T14:51:29.307Z,100792.59
2022-12-12T14:54:34.277Z,100791.03
2022-12-12T14:57:38.422Z,100800.00
2022-12-12T15:00:50.584Z,100793.03
2022-12-12T15:03:53.491Z,100807.19
2022-12-12T15:06:58.072Z,100802.53
2022-12-12T15:10:02.552Z,100804.41
2022-12-12T15:13:17.081Z,100802.91
2022-12-12T15:16:28.075Z,100808.56
2022-12-12T15:19:35.270Z,100820.09
2022-12-12T15:22:41.542Z,100818.81
2022-12-12T15:25:50.563Z,100809.31
2022-12-12T15:28:53.424Z,100807.09
2022-12-12T15:32:05.181Z,100805.69
2022-12-12T15:35:17.796Z,100807.94
2022-12-12T15:38:22.447Z,100815.94
2022-12-12T15:41:25.363Z,100802.78
2022-12-12T15:44:29.592Z,100805.16
2022-12-12T15:47:35.330Z,100805.41
2022-12-12T15:50:53.246Z,100807.66
2022-12-12T15:53:57.544Z,100804.66
2022-12-12T15:57:01.639Z,100814.41
2022-12-12T16:00:09.717Z,100812.19
2022-12-12T16:03:25.284Z,100814.53
2022-12-12T16:06:33.252Z,100819.72
2022-12-12T16:09:37.471Z,100815.06
2022-12-12T16:16:41.131Z,100823.06
2022-12-12T16:19:49.527Z,100821.56
2022-12-12T16:22:53.638Z,100824.94
2022-12-12T16:25:56.887Z,100825.75
2022-12-12T16:29:01.306Z,100834.94
2022-12-12T16:32:04.053Z,100830.13
2022-12-12T16:35:11.362Z,100835.88
2022-12-12T16:38:15.388Z,100840.03
2022-12-12T16:41:20.932Z,100841.25
2022-12-12T16:44:24.976Z,100840.16
2022-12-12T16:47:27.986Z,100844.38
2022-12-12T16:53:53.715Z,100838.13
2022-12-12T16:56:57.742Z,100837.16
2022-12-12T17:00:01.749Z,100831.69
2022-12-12T17:03:04.735Z,100841.34
2022-12-12T17:06:11.224Z,100835.50
2022-12-12T17:09:14.528Z,100834.09
2022-12-12T17:12:18.560Z,100840.50
2022-12-12T17:15:24.504Z,100835.22
2022-12-12T17:18:27.277Z,100831.34
2022-12-12T17:21:32.677Z,100848.78
2022-12-12T17:24:35.746Z,100845.63
2022-12-12T17:27:39.918Z,100843.94
2022-12-12T17:30:43.145Z,100852.81
2022-12-12T17:33:51.063Z,100861.84
2022-12-12T17:36:56.750Z,100865.50
2022-12-12T17:39:59.579Z,100865.50
2022-12-12T17:43:05.188Z,100862.63
2022-12-12T17:46:15.206Z,100857.28
2022-12-12T17:49:18.129Z,100853.94
2022-12-12T17:52:23.853Z,100847.16
2022-12-12T17:55:53.899Z,100844.78
2022-12-12T17:58:51.739Z,100845.97
2022-12-12T18:01:55.899Z,100845.22
2022-12-12T18:04:58.706Z,100859.50
2022-12-12T18:08:04.389Z,100858.25
2022-12-12T18:11:08.818Z,100859.56
2022-12-12T18:14:16.625Z,100857.47
2022-12-12T18:17:20.879Z,100861.09
2022-12-12T18:20:28.036Z,100864.06
2022-12-12T18:23:37.008Z,100869.16
2022-12-12T18:26:41.542Z,100874.84
2022-12-12T18:29:44.455Z,100869.16
2022-12-12T18:32:48.594Z,100866.94
2022-12-12T18:35:51.810Z,100860.47
2022-12-12T18:38:58.096Z,100863.69
2022-12-12T18:42:00.843Z,100868.63
2022-12-12T18:45:05.552Z,100867.03
2022-12-12T18:48:09.530Z,100869.22
2022-12-12T18:51:15.291Z,100878.56
2022-12-12T18:57:42.502Z,100880.28
2022-12-12T19:00:46.020Z,100876.66
2022-12-12T19:03:52.061Z,100879.44
2022-12-12T19:06:55.203Z,100881.00
2022-12-12T19:10:00.569Z,100879.72
2022-12-12T19:13:03.655Z,100888.06
2022-12-12T19:16:09.255Z,100899.97
2022-12-12T19:19:14.417Z,100907.16
2022-12-12T19:22:43.752Z,100902.56
2022-12-12T19:25:43.413Z,100907.47
2022-12-12T19:28:48.930Z,100897.47
2022-12-12T19:31:58.390Z,100895.38
2022-12-12T19:38:24.935Z,100891.19
2022-12-12T19:41:29.975Z,100888.13
2022-12-12T19:44:38.639Z,100879.50
2022-12-12T19:47:44.509Z,100888.19
2022-12-12T19:50:48.873Z,100890.13
2022-12-12T19:53:55.986Z,100900.81
2022-12-12T19:57:00.469Z,100897.66
2022-12-12T20:00:05.128Z,100895.06
2022-12-12T20:03:07.980Z,100895.84
2022-12-12T20:06:14.122Z,100900.75
2022-12-12T20:09:19.352Z,100895.84
2022-12-12T20:15:46.639Z,100895.06
2022-12-12T20:18:50.305Z,100896.38
2022-12-12T20:22:03.087Z,100903.09
2022-12-12T20:28:30.438Z,100894.00
2022-12-12T20:31:36.737Z,100906.19
2022-12-12T20:34:39.498Z,100903.69
2022-12-12T20:37:43.498Z,100904.69
2022-12-12T20:40:46.249Z,100911.41
2022-12-12T20:43:52.059Z,100911.13
2022-12-12T20:46:55.032Z,100907.41
2022-12-12T20:49:59.102Z,100909.22
2022-12-12T20:53:01.848Z,100909.63
2022-12-12T20:56:10.685Z,100913.69
2022-12-12T20:59:15.359Z,100906.22
2022-12-12T21:02:19.403Z,100914.00
2022-12-12T21:05:22.166Z,100918.66
2022-12-12T21:08:26.154Z,100917.31
2022-12-12T21:11:30.656Z,100916.63
2022-12-12T21:14:36.914Z,100916.47
2022-12-12T21:17:40.894Z,100921.53
2022-12-12T21:20:45.865Z,100921.25
2022-12-12T21:23:50.529Z,100923.28
2022-12-12T21:26:54.560Z,100920.66
2022-12-12T21:29:58.833Z,100915.69
2022-12-12T21:33:02.859Z,100920.69
2022-12-12T21:36:07.524Z,100917.22
2022-12-12T21:39:10.226Z,100910.66
2022-12-12T21:42:14.388Z,100912.00
2022-12-12T21:45:18.489Z,100912.84
2022-12-12T21:48:22.510Z,100907.59
2022-12-12T21:51:26.517Z,100910.34
2022-12-12T21:54:30.775Z,100903.03
2022-12-12T21:57:34.768Z,100912.09
2022-12-12T22:00:40.256Z,100907.78
2022-12-12T22:03:44.469Z,100906.44
2022-12-12T22:06:47.391Z,100919.69
2022-12-12T22:09:59.034Z,100910.94
2022-12-12T22:13:15.272Z,100905.38
2022-12-12T22:16:21.005Z,100913.34
2022-12-12T22:19:25.032Z,100910.47
2022-12-12T22:22:30.242Z,100913.09
2022-12-12T22:25:32.982Z,100909.44
2022-12-12T22:28:36.947Z,100910.34
2022-12-12T22:31:42.649Z,100911.78
2022-12-12T22:34:46.741Z,100914.28
2022-12-12T22:41:11.392Z,100913.16
2022-12-12T22:44:17.997Z,100914.94
2022-12-12T22:47:23.757Z,100910.66
2022-12-12T22:50:27.745Z,100898.44
2022-12-12T22:53:31.692Z,100896.81
2022-12-12T22:56:36.208Z,100903.91
2022-12-12T22:59:40.240Z,100905.44
2022-12-12T23:02:44.408Z,100916.63
2022-12-12T23:05:48.450Z,100912.00
2022-12-12T23:08:54.414Z,100922.31
2022-12-12T23:11:57.221Z,100916.97
2022-12-12T23:15:01.222Z,100920.78
2022-12-12T23:18:05.458Z,100904.91
2022-12-12T23:21:16.671Z,100913.81
2022-12-12T23:24:20.359Z,100907.94
2022-12-12T23:27:24.123Z,100918.94
2022-12-12T23:30:28.258Z,100920.06
2022-12-12T23:33:32.497Z,100907.78
2022-12-12T23:36:36.734Z,100910.09
2022-12-12T23:39:40.715Z,100911.13
2022-12-12T23:42:43.474Z,100907.78
2022-12-12T23:45:47.375Z,100905.75
2022-12-12T23:48:52.481Z,100908.84
2022-12-12T23:51:57.115Z,100901.00
2022-12-12T23:55:00.904Z,100896.81
2022-12-12T23:58:03.656Z,100905.75
